Time;durP1;ratioP1;P1;durP2;ratioP2;P2;SDS_P1;SDS_P2;PMS_P1;PMS_P2;Temp;Humidity;BMP_temperature;BMP_pressure;BME280_temperature;BME280_humidity;BME280_pressure;Samples;Min_cycle;Max_cycle;Signal;HPM_P1;HPM_P2
2022/06/23 00:00:36;;;;;;;;;;;;;;;;;;4927604;29;19921;-80
2022/06/23 00:03:01;;;;;;;;;;;;;;;;;;4932354;29;19919;-82
2022/06/23 00:05:27;;;;;;;;;;;;;;;;;;4921431;29;19921;-81
2022/06/23 00:07:52;;;;;;;;;;;;;;;;;;4930937;29;20298;-85
2022/06/23 00:10:17;;;;;;;;;;;;;;;;;;4925260;29;19926;-83
2022/06/23 00:12:43;;;;;;;;;;;;;;;;;;4937339;29;19918;-83
2022/06/23 00:15:08;;;;;;;;;;;;;;;;;;4935614;29;20279;-82
2022/06/23 00:17:34;;;;;;;;;;;;;;;;;;4935187;29;19922;-85
2022/06/23 00:20:00;;;;;;;;;;;;;;;;;;4912697;29;19974;-83
2022/06/23 00:22:25;;;;;;;;;;;;;;;;;;4918335;29;19997;-84
2022/06/23 00:24:55;;;;;;;;;;;;;;;;;;4949879;28;19914;-83
2022/06/23 00:27:21;;;;;;;;;;;;;;;;;;4936454;29;20394;-85
2022/06/23 00:29:46;;;;;;;;;;;;;;;;;;4912616;29;19925;-84
2022/06/23 00:32:11;;;;;;;;;;;;;;;;;;4946320;29;19989;-84
2022/06/23 00:34:37;;;;;;;;;;;;;;;;;;4928045;29;19915;-84
2022/06/23 00:37:02;;;;;;;;;;;;;;;;;;4927333;29;20017;-85
2022/06/23 00:39:27;;;;;;;;;;;;;;;;;;4944570;29;19914;-84
2022/06/23 00:41:53;;;;;;;;;;;;;;;;;;4951462;29;19922;-84
2022/06/23 00:44:19;;;;;;;;;;;;;;;;;;4944426;29;20125;-84
2022/06/23 00:46:44;;;;;;;;;;;;;;;;;;4944098;29;20355;-82
2022/06/23 00:49:09;;;;;;;;;;;;;;;;;;4941127;29;19919;-83
2022/06/23 00:51:35;;;;;;;;;;;;;;;;;;4946768;29;19922;-84
2022/06/23 00:54:00;;;;;;;;;;;;;;;;;;4930181;29;19939;-83
2022/06/23 00:56:25;;;;;;;;;;;;;;;;;;4947428;28;19914;-83
2022/06/23 00:58:51;;;;;;;;;;;;;;;;;;4941727;29;19915;-84
2022/06/23 01:01:16;;;;;;;;;;;;;;;;;;4944627;29;19915;-86
2022/06/23 01:03:41;;;;;;;;;;;;;;;;;;4943868;29;19930;-85
2022/06/23 01:06:07;;;;;;;;;;;;;;;;;;4939914;29;19915;-82
2022/06/23 01:08:32;;;;;;;;;;;;;;;;;;4932417;29;19919;-82
2022/06/23 01:10:58;;;;;;;;;;;;;;;;;;4937755;29;19921;-83
2022/06/23 01:13:23;;;;;;;;;;;;;;;;;;4941919;29;20005;-84
2022/06/23 01:15:48;;;;;;;;;;;;;;;;;;4948062;28;19914;-83
2022/06/23 01:18:14;;;;;;;;;;;;;;;;;;4941577;29;19954;-83
2022/06/23 01:20:39;;;;;;;;;;;;;;;;;;4933477;29;19962;-84
2022/06/23 01:23:05;;;;;;;;;;;;;;;;;;4942765;29;19923;-83
2022/06/23 01:25:30;;;;;;;;;;;;;;;;;;4947149;29;19945;-84
2022/06/23 01:27:55;;;;;;;;;;;;;;;;;;4945896;29;19914;-83
2022/06/23 01:30:21;;;;;;;;;;;;;;;;;;4939209;29;19969;-86
2022/06/23 01:32:46;;;;;;;;;;;;;;;;;;4924113;29;20001;-84
2022/06/23 01:35:12;;;;;;;;;;;;;;;;;;4949446;28;19919;-84
2022/06/23 01:37:37;;;;;;;;;;;;;;;;;;4937287;29;19915;-83
2022/06/23 01:40:03;;;;;;;;;;;;;;;;;;4919695;29;19946;-81
2022/06/23 01:42:28;;;;;;;;;;;;;;;;;;4932074;29;19926;-81
2022/06/23 01:44:54;;;;;;;;;;;;;;;;;;4925659;29;20377;-81
2022/06/23 01:47:19;;;;;;;;;;;;;;;;;;4940024;28;19914;-82
2022/06/23 01:49:45;;;;;;;;;;;;;;;;;;4937524;29;19919;-80
2022/06/23 01:52:10;;;;;;;;;;;;;;;;;;4920375;29;19915;-79
2022/06/23 01:54:36;;;;;;;;;;;;;;;;;;4931539;28;19915;-79
2022/06/23 01:57:01;;;;;;;;;;;;;;;;;;4937017;29;19918;-82
2022/06/23 01:59:27;;;;;;;;;;;;;;;;;;4927861;29;20497;-82
2022/06/23 02:01:52;;;;;;;;;;;;;;;;;;4920284;29;19926;-83
2022/06/23 02:04:17;;;;;;;;;;;;;;;;;;4902907;28;19922;-83
2022/06/23 02:06:43;;;;;;;;;;;;;;;;;;4943964;29;19925;-81
2022/06/23 02:09:08;;;;;;;;;;;;;;;;;;4923693;29;19919;-83
2022/06/23 02:11:33;;;;;;;;;;;;;;;;;;4921108;29;20013;-82
2022/06/23 02:13:59;;;;;;;;;;;;;;;;;;4933745;29;19915;-82
2022/06/23 02:16:24;;;;;;;;;;;;;;;;;;4941276;29;19934;-83
2022/06/23 02:18:49;;;;;;;;;;;;;;;;;;4940351;29;19922;-83
2022/06/23 02:21:15;;;;;;;;;;;;;;;;;;4934552;29;19922;-83
2022/06/23 02:23:40;;;;;;;;;;;;;;;;;;4942836;29;19921;-82
2022/06/23 02:26:05;;;;;;;;;;;;;;;;;;4923454;29;20342;-83
2022/06/23 02:28:31;;;;;;;;;;;;;;;;;;4937736;29;19974;-87
2022/06/23 02:30:57;;;;;;;;;;;;;;;;;;4926165;29;19925;-86
2022/06/23 02:33:22;;;;;;;;;;;;;;;;;;4940748;29;19926;-84
2022/06/23 02:35:48;;;;;;;;;;;;;;;;;;4945718;28;19915;-85
2022/06/23 02:38:13;;;;;;;;;;;;;;;;;;4942559;29;19926;-83
2022/06/23 02:40:38;;;;;;;;;;;;;;;;;;4947876;29;20045;-83
2022/06/23 02:43:04;;;;;;;;;;;;;;;;;;4940446;29;20370;-82
2022/06/23 02:45:29;;;;;;;;;;;;;;;;;;4944786;28;20387;-83
2022/06/23 02:47:55;;;;;;;;;;;;;;;;;;4920170;29;19915;-83
2022/06/23 02:50:20;;;;;;;;;;;;;;;;;;4933387;29;20013;-82
2022/06/23 02:52:45;;;;;;;;;;;;;;;;;;4939060;29;19914;-83
2022/06/23 02:55:11;;;;;;;;;;;;;;;;;;4944012;28;19914;-83
2022/06/23 02:57:36;;;;;;;;;;;;;;;;;;4943114;29;19915;-83
2022/06/23 03:00:01;;;;;;;;;;;;;;;;;;4940677;29;19945;-84
2022/06/23 03:02:27;;;;;;;;;;;;;;;;;;4942888;29;19922;-86
2022/06/23 03:04:52;;;;;;;;;;;;;;;;;;4928570;29;19915;-82
2022/06/23 03:07:18;;;;;;;;;;;;;;;;;;4928921;29;19915;-83
2022/06/23 03:09:43;;;;;;;;;;;;;;;;;;4925852;29;19931;-83
2022/06/23 03:12:09;;;;;;;;;;;;;;;;;;4946226;29;20294;-85
2022/06/23 03:14:34;;;;;;;;;;;;;;;;;;4930634;28;19919;-85
2022/06/23 03:16:59;;;;;;;;;;;;;;;;;;4910459;29;20282;-86
2022/06/23 03:19:25;;;;;;;;;;;;;;;;;;4918563;29;19915;-86
2022/06/23 03:21:50;;;;;;;;;;;;;;;;;;4933442;29;19946;-85
2022/06/23 03:24:15;;;;;;;;;;;;;;;;;;4939943;29;19922;-85
2022/06/23 03:26:41;;;;;;;;;;;;;;;;;;4935244;29;20373;-84
2022/06/23 03:29:06;;;;;;;;;;;;;;;;;;4936960;29;19919;-84
2022/06/23 03:31:31;;;;;;;;;;;;;;;;;;4934335;29;19914;-85
2022/06/23 03:33:57;;;;;;;;;;;;;;;;;;4934931;29;19941;-85
2022/06/23 03:36:24;;;;;;;;;;;;;;;;;;4933419;29;19922;-84
2022/06/23 03:41:37;;;;;;;;;;;;;;;;;;4917388;29;19942;-84
2022/06/23 03:44:02;;;;;;;;;;;;;;;;;;4922297;29;20001;-86
2022/06/23 03:46:28;;;;;;;;;;;;;;;;;;4943122;29;20006;-83
2022/06/23 03:48:53;;;;;;;;;;;;;;;;;;4934887;29;20425;-84
2022/06/23 03:51:19;;;;;;;;;;;;;;;;;;4922395;29;20298;-83
2022/06/23 03:53:44;;;;;;;;;;;;;;;;;;4918739;29;19992;-84
2022/06/23 03:56:09;;;;;;;;;;;;;;;;;;4929435;29;20005;-85
2022/06/23 03:58:35;;;;;;;;;;;;;;;;;;4934600;29;20001;-82
2022/06/23 04:01:00;;;;;;;;;;;;;;;;;;4918862;29;20374;-81
2022/06/23 04:03:26;;;;;;;;;;;;;;;;;;4934573;29;19914;-83
2022/06/23 04:05:51;;;;;;;;;;;;;;;;;;4922546;29;19918;-82
2022/06/23 04:08:17;;;;;;;;;;;;;;;;;;4934811;29;20438;-82
2022/06/23 04:10:42;;;;;;;;;;;;;;;;;;4919953;29;19933;-82
2022/06/23 04:13:10;;;;;;;;;;;;;;;;;;4945498;29;19937;-84
2022/06/23 04:15:36;;;;;;;;;;;;;;;;;;4938429;29;20318;-82
2022/06/23 04:18:01;;;;;;;;;;;;;;;;;;4938744;29;19914;-84
2022/06/23 04:20:26;;;;;;;;;;;;;;;;;;4941942;29;19922;-84
2022/06/23 04:22:52;;;;;;;;;;;;;;;;;;4939368;29;19922;-86
2022/06/23 04:25:17;;;;;;;;;;;;;;;;;;4942349;29;19918;-87
2022/06/23 04:27:43;;;;;;;;;;;;;;;;;;4944813;29;19914;-86
2022/06/23 04:30:08;;;;;;;;;;;;;;;;;;4932339;29;20417;-86
2022/06/23 04:32:34;;;;;;;;;;;;;;;;;;4941064;29;19919;-84
2022/06/23 04:34:59;;;;;;;;;;;;;;;;;;4952538;28;20278;-83
2022/06/23 04:37:25;;;;;;;;;;;;;;;;;;4947666;29;19914;-84
2022/06/23 04:39:53;;;;;;;;;;;;;;;;;;4928371;29;19957;-84
2022/06/23 04:42:19;;;;;;;;;;;;;;;;;;4940636;29;19950;-85
2022/06/23 04:44:44;;;;;;;;;;;;;;;;;;4942395;29;19914;-84
2022/06/23 04:47:09;;;;;;;;;;;;;;;;;;4939485;29;19915;-83
2022/06/23 04:49:35;;;;;;;;;;;;;;;;;;4942689;29;20297;-85
2022/06/23 04:52:01;;;;;;;;;;;;;;;;;;4945803;29;19926;-83
2022/06/23 04:54:26;;;;;;;;;;;;;;;;;;4949936;28;20006;-84
2022/06/23 04:56:51;;;;;;;;;;;;;;;;;;4928612;29;20389;-83
2022/06/23 04:59:17;;;;;;;;;;;;;;;;;;4942975;29;19922;-85
2022/06/23 05:01:42;;;;;;;;;;;;;;;;;;4938381;29;19918;-84
2022/06/23 05:04:11;;;;;;;;;;;;;;;;;;4938056;29;19914;-83
2022/06/23 05:06:37;;;;;;;;;;;;;;;;;;4929060;29;19919;-84
2022/06/23 05:09:03;;;;;;;;;;;;;;;;;;4946367;29;19926;-84
2022/06/23 05:11:29;;;;;;;;;;;;;;;;;;4921435;29;20374;-83
2022/06/23 05:13:54;;;;;;;;;;;;;;;;;;4928877;29;19914;-84
2022/06/23 05:16:20;;;;;;;;;;;;;;;;;;4941912;28;19922;-84
2022/06/23 05:18:45;;;;;;;;;;;;;;;;;;4937569;29;19926;-86
2022/06/23 05:21:10;;;;;;;;;;;;;;;;;;4937397;29;20318;-87
2022/06/23 05:23:36;;;;;;;;;;;;;;;;;;4938343;29;19915;-87
2022/06/23 05:26:01;;;;;;;;;;;;;;;;;;4925333;29;20274;-87
2022/06/23 05:28:26;;;;;;;;;;;;;;;;;;4928883;29;19915;-86
2022/06/23 05:30:52;;;;;;;;;;;;;;;;;;4945767;29;19922;-86
2022/06/23 05:33:17;;;;;;;;;;;;;;;;;;4945903;29;19915;-85
2022/06/23 05:35:46;;;;;;;;;;;;;;;;;;4911315;29;19922;-85
2022/06/23 05:38:11;;;;;;;;;;;;;;;;;;4919269;29;19989;-85
2022/06/23 05:40:36;;;;;;;;;;;;;;;;;;4906663;29;20009;-83
2022/06/23 05:43:02;;;;;;;;;;;;;;;;;;4941609;29;20428;-82
2022/06/23 05:45:27;;;;;;;;;;;;;;;;;;4923949;29;20308;-82
2022/06/23 05:47:53;;;;;;;;;;;;;;;;;;4930463;29;19962;-85
2022/06/23 05:50:18;;;;;;;;;;;;;;;;;;4943840;29;19918;-84
2022/06/23 05:52:44;;;;;;;;;;;;;;;;;;4949533;29;19921;-84
2022/06/23 05:55:09;;;;;;;;;;;;;;;;;;4925020;29;19977;-83
2022/06/23 05:57:34;;;;;;;;;;;;;;;;;;4948905;29;19921;-83
2022/06/23 06:00:00;;;;;;;;;;;;;;;;;;4946804;29;20378;-83
2022/06/23 06:02:25;;;;;;;;;;;;;;;;;;4941459;29;19915;-83
2022/06/23 06:04:50;;;;;;;;;;;;;;;;;;4948912;28;19922;-85
2022/06/23 06:07:16;;;;;;;;;;;;;;;;;;4951193;29;19915;-86
2022/06/23 06:09:41;;;;;;;;;;;;;;;;;;4946976;29;19926;-85
2022/06/23 06:12:07;;;;;;;;;;;;;;;;;;4943254;29;19983;-87
2022/06/23 06:14:32;;;;;;;;;;;;;;;;;;4938368;29;19915;-87
2022/06/23 06:16:57;;;;;;;;;;;;;;;;;;4953300;29;19921;-86
2022/06/23 06:19:23;;;;;;;;;;;;;;;;;;4958316;29;19919;-88
2022/06/23 06:21:48;;;;;;;;;;;;;;;;;;4929580;29;19927;-87
2022/06/23 06:24:14;;;;;;;;;;;;;;;;;;4941625;29;20263;-88
2022/06/23 06:26:39;;;;;;;;;;;;;;;;;;4960193;29;19926;-88
2022/06/23 06:29:04;;;;;;;;;;;;;;;;;;4977621;23;19933;-77
2022/06/23 06:31:30;;;;;;;;;;;;;;;;;;4955651;28;19941;-77
2022/06/23 06:33:55;;;;;;;;;;;;;;;;;;4956292;28;19918;-77
2022/06/23 06:36:21;;;;;;;;;;;;;;;;;;4972323;28;19921;-78
2022/06/23 06:38:53;;;;;;;;;;;;;;;;;;4968204;28;19918;-76
2022/06/23 06:41:33;;;;;;;;;;;;;;;;;;4953341;28;19969;-76
2022/06/23 06:43:58;;;;;;;;;;;;;;;;;;4950559;28;19914;-76
2022/06/23 06:46:24;;;;;;;;;;;;;;;;;;4955548;28;19992;-76
2022/06/23 06:48:49;;;;;;;;;;;;;;;;;;4936858;29;19918;-76
2022/06/23 06:51:15;;;;;;;;;;;;;;;;;;4955236;28;19914;-78
2022/06/23 06:53:41;;;;;;;;;;;;;;;;;;4956033;28;20873;-77
2022/06/23 06:56:07;;;;;;;;;;;;;;;;;;4970811;28;19923;-78
2022/06/23 06:58:33;;;;;;;;;;;;;;;;;;4971804;28;19918;-76
2022/06/23 07:00:58;;;;;;;;;;;;;;;;;;4971717;28;20008;-77
2022/06/23 07:03:24;;;;;;;;;;;;;;;;;;4971642;28;19914;-76
2022/06/23 07:05:53;;;;;;;;;;;;;;;;;;4952605;29;19941;-77
2022/06/23 07:08:18;;;;;;;;;;;;;;;;;;4969839;28;19914;-74
2022/06/23 07:10:43;;;;;;;;;;;;;;;;;;4955768;28;19914;-75
2022/06/23 07:13:09;;;;;;;;;;;;;;;;;;4971475;28;20365;-77
2022/06/23 07:15:35;;;;;;;;;;;;;;;;;;4971625;28;19914;-77
2022/06/23 07:18:02;;;;;;;;;;;;;;;;;;4955671;28;20323;-76
2022/06/23 07:20:28;;;;;;;;;;;;;;;;;;4971615;28;20333;-74
2022/06/23 07:22:54;;;;;;;;;;;;;;;;;;4942804;28;20381;-77
2022/06/23 07:25:19;;;;;;;;;;;;;;;;;;4952701;28;19965;-77
2022/06/23 07:27:45;;;;;;;;;;;;;;;;;;4971321;28;19918;-76
2022/06/23 07:30:11;;;;;;;;;;;;;;;;;;4933878;28;20005;-77
2022/06/23 07:32:37;;;;;;;;;;;;;;;;;;4971205;28;19961;-76
2022/06/23 07:35:03;;;;;;;;;;;;;;;;;;4939541;28;19918;-77
2022/06/23 07:37:30;;;;;;;;;;;;;;;;;;4971318;28;20449;-75
2022/06/23 07:39:55;;;;;;;;;;;;;;;;;;4936198;29;20017;-77
2022/06/23 07:42:21;;;;;;;;;;;;;;;;;;4968550;28;20005;-77
2022/06/23 07:44:46;;;;;;;;;;;;;;;;;;4955196;28;19914;-77
2022/06/23 07:47:12;;;;;;;;;;;;;;;;;;4969710;28;19914;-77
2022/06/23 07:49:38;;;;;;;;;;;;;;;;;;4970744;28;19933;-77
2022/06/23 07:52:04;;;;;;;;;;;;;;;;;;4971521;28;19921;-78
2022/06/23 07:54:30;;;;;;;;;;;;;;;;;;4972745;28;19914;-77
2022/06/23 07:56:56;;;;;;;;;;;;;;;;;;4953964;28;19933;-77
2022/06/23 07:59:22;;;;;;;;;;;;;;;;;;4972212;28;19918;-76
2022/06/23 08:01:48;;;;;;;;;;;;;;;;;;4971594;28;20026;-78
2022/06/23 08:04:13;;;;;;;;;;;;;;;;;;4971560;28;19921;-76
2022/06/23 08:06:39;;;;;;;;;;;;;;;;;;4939245;28;19918;-75
2022/06/23 08:09:04;;;;;;;;;;;;;;;;;;4970285;28;19973;-77
2022/06/23 08:14:15;;;;;;;;;;;;;;;;;;4956132;28;19961;-78
2022/06/23 08:19:37;;;;;;;;;;;;;;;;;;4961467;28;19926;-77
2022/06/23 08:22:02;;;;;;;;;;;;;;;;;;4974440;28;19914;-77
2022/06/23 08:24:29;;;;;;;;;;;;;;;;;;4976504;28;19914;-78
2022/06/23 08:26:55;;;;;;;;;;;;;;;;;;4946430;28;19935;-79
2022/06/23 08:29:21;;;;;;;;;;;;;;;;;;4965822;28;19941;-78
2022/06/23 08:31:47;;;;;;;;;;;;;;;;;;4936896;29;19914;-78
2022/06/23 08:34:13;;;;;;;;;;;;;;;;;;4940822;28;19921;-78
2022/06/23 08:36:39;;;;;;;;;;;;;;;;;;4957043;28;19914;-80
2022/06/23 08:39:07;;;;;;;;;;;;;;;;;;4972973;28;20373;-77
2022/06/23 08:41:36;;;;;;;;;;;;;;;;;;4940964;28;19915;-79
2022/06/23 08:44:01;;;;;;;;;;;;;;;;;;4956133;28;19914;-78
2022/06/23 08:46:30;;;;;;;;;;;;;;;;;;4955310;28;19921;-77
2022/06/23 08:48:56;;;;;;;;;;;;;;;;;;4954385;28;19924;-78
2022/06/23 08:51:21;;;;;;;;;;;;;;;;;;4971463;28;20008;-77
2022/06/23 08:53:47;;;;;;;;;;;;;;;;;;4971773;28;19915;-77
2022/06/23 08:56:13;;;;;;;;;;;;;;;;;;4972233;28;19914;-77
2022/06/23 08:58:41;;;;;;;;;;;;;;;;;;4975936;28;20301;-76
2022/06/23 09:01:13;;;;;;;;;;;;;;;;;;4974630;28;19914;-80
2022/06/23 09:03:39;;;;;;;;;;;;;;;;;;4959124;28;19922;-76
2022/06/23 09:06:04;;;;;;;;;;;;;;;;;;4974412;28;20005;-80
2022/06/23 09:08:30;;;;;;;;;;;;;;;;;;4956462;28;19933;-78
2022/06/23 09:10:56;;;;;;;;;;;;;;;;;;4961122;28;20517;-77
2022/06/23 09:13:21;;;;;;;;;;;;;;;;;;4958423;28;20301;-77
2022/06/23 09:15:47;;;;;;;;;;;;;;;;;;4957783;28;19914;-78
2022/06/23 09:18:13;;;;;;;;;;;;;;;;;;4970369;28;20073;-77
2022/06/23 09:20:38;;;;;;;;;;;;;;;;;;4973224;28;20081;-77
2022/06/23 09:23:04;;;;;;;;;;;;;;;;;;4973905;28;19914;-77
2022/06/23 09:25:30;;;;;;;;;;;;;;;;;;4957641;28;19939;-77
2022/06/23 09:27:56;;;;;;;;;;;;;;;;;;4973867;28;19922;-76
2022/06/23 09:30:21;;;;;;;;;;;;;;;;;;4957108;28;19918;-76
2022/06/23 09:32:47;;;;;;;;;;;;;;;;;;4968966;28;19922;-76
2022/06/23 09:35:13;;;;;;;;;;;;;;;;;;4957159;28;19929;-78
2022/06/23 09:37:39;;;;;;;;;;;;;;;;;;4958091;28;20095;-78
2022/06/23 09:40:04;;;;;;;;;;;;;;;;;;4960732;28;19914;-77
2022/06/23 09:42:30;;;;;;;;;;;;;;;;;;4957725;28;20288;-79
2022/06/23 09:44:56;;;;;;;;;;;;;;;;;;4942824;28;19981;-79
2022/06/23 09:47:22;;;;;;;;;;;;;;;;;;4957691;28;19968;-79
2022/06/23 09:49:48;;;;;;;;;;;;;;;;;;4974165;28;19918;-77
2022/06/23 09:52:13;;;;;;;;;;;;;;;;;;4972020;28;19914;-78
2022/06/23 09:54:39;;;;;;;;;;;;;;;;;;4974762;28;19922;-76
2022/06/23 09:57:11;;;;;;;;;;;;;;;;;;4958662;28;19914;-78
2022/06/23 09:59:36;;;;;;;;;;;;;;;;;;4954471;29;19914;-77
2022/06/23 10:02:02;;;;;;;;;;;;;;;;;;4955932;28;19917;-77
2022/06/23 10:04:28;;;;;;;;;;;;;;;;;;4939060;29;19922;-78
2022/06/23 10:06:54;;;;;;;;;;;;;;;;;;4954666;29;19914;-77
2022/06/23 10:09:19;;;;;;;;;;;;;;;;;;4955384;28;19926;-78
2022/06/23 10:11:45;;;;;;;;;;;;;;;;;;4938624;29;19915;-78
2022/06/23 10:14:11;;;;;;;;;;;;;;;;;;4945262;28;19929;-77
2022/06/23 10:16:36;;;;;;;;;;;;;;;;;;4955778;28;19942;-78
2022/06/23 10:19:02;;;;;;;;;;;;;;;;;;4970003;28;20001;-76
2022/06/23 10:21:28;;;;;;;;;;;;;;;;;;4953005;28;20467;-78
2022/06/23 10:23:54;;;;;;;;;;;;;;;;;;4936851;29;19929;-77
2022/06/23 10:26:19;;;;;;;;;;;;;;;;;;4939909;28;19934;-78
2022/06/23 10:28:54;;;;;;;;;;;;;;;;;;4957525;28;19922;-77
2022/06/23 10:31:20;;;;;;;;;;;;;;;;;;4967662;28;19925;-77
2022/06/23 10:33:46;;;;;;;;;;;;;;;;;;4957079;28;20037;-76
2022/06/23 10:36:12;;;;;;;;;;;;;;;;;;4972846;28;20071;-76
2022/06/23 10:38:41;;;;;;;;;;;;;;;;;;4955334;28;19914;-76
2022/06/23 10:41:07;;;;;;;;;;;;;;;;;;4971460;28;19914;-79
2022/06/23 10:43:33;;;;;;;;;;;;;;;;;;4972530;28;20369;-80
2022/06/23 10:46:08;;;;;;;;;;;;;;;;;;4972918;28;19918;-80
2022/06/23 10:48:34;;;;;;;;;;;;;;;;;;4953658;29;19990;-81
2022/06/23 10:51:03;;;;;;;;;;;;;;;;;;4954645;29;19917;-78
2022/06/23 10:53:28;;;;;;;;;;;;;;;;;;4954071;29;20301;-77
2022/06/23 10:55:54;;;;;;;;;;;;;;;;;;4935404;29;20321;-77
2022/06/23 10:58:19;;;;;;;;;;;;;;;;;;4938380;29;19914;-77
2022/06/23 11:00:45;;;;;;;;;;;;;;;;;;4953654;29;19915;-76
2022/06/23 11:03:11;;;;;;;;;;;;;;;;;;4953586;29;20396;-77
2022/06/23 11:05:37;;;;;;;;;;;;;;;;;;4938086;29;20362;-77
2022/06/23 11:08:02;;;;;;;;;;;;;;;;;;4937600;29;19958;-77
2022/06/23 11:10:28;;;;;;;;;;;;;;;;;;4953496;29;19980;-76
2022/06/23 11:12:53;;;;;;;;;;;;;;;;;;4954252;28;19915;-76
2022/06/23 11:15:19;;;;;;;;;;;;;;;;;;4953055;29;19925;-77
2022/06/23 11:17:45;;;;;;;;;;;;;;;;;;4952676;28;19993;-77
2022/06/23 11:20:11;;;;;;;;;;;;;;;;;;4953747;28;20013;-77
2022/06/23 11:22:37;;;;;;;;;;;;;;;;;;4953077;29;19950;-77
2022/06/23 11:25:02;;;;;;;;;;;;;;;;;;4953158;29;19914;-76
2022/06/23 11:27:27;;;;;;;;;;;;;;;;;;4953294;28;19993;-76
2022/06/23 11:29:53;;;;;;;;;;;;;;;;;;4921156;29;20270;-77
2022/06/23 11:32:19;;;;;;;;;;;;;;;;;;4953129;29;19942;-77
2022/06/23 11:34:44;;;;;;;;;;;;;;;;;;4954429;28;20294;-76
2022/06/23 11:37:10;;;;;;;;;;;;;;;;;;4953337;28;20301;-77
2022/06/23 11:39:35;;;;;;;;;;;;;;;;;;4954152;28;19915;-76
2022/06/23 11:42:01;;;;;;;;;;;;;;;;;;4952551;29;19936;-77
2022/06/23 11:44:26;;;;;;;;;;;;;;;;;;4936718;29;19918;-76
2022/06/23 11:46:52;;;;;;;;;;;;;;;;;;4954203;28;19937;-76
2022/06/23 11:49:19;;;;;;;;;;;;;;;;;;4952813;29;19918;-77
2022/06/23 11:51:44;;;;;;;;;;;;;;;;;;4952558;29;19915;-77
2022/06/23 11:54:10;;;;;;;;;;;;;;;;;;4952682;29;19914;-76
2022/06/23 11:56:36;;;;;;;;;;;;;;;;;;4921283;29;20379;-76
2022/06/23 11:59:04;;;;;;;;;;;;;;;;;;4937078;29;20342;-76
2022/06/23 12:01:33;;;;;;;;;;;;;;;;;;4952638;29;19918;-76
2022/06/23 12:04:00;;;;;;;;;;;;;;;;;;4937052;29;20292;-76
2022/06/23 12:06:25;;;;;;;;;;;;;;;;;;4953013;29;19915;-75
2022/06/23 12:08:51;;;;;;;;;;;;;;;;;;4952473;28;20000;-77
2022/06/23 12:11:17;;;;;;;;;;;;;;;;;;4936794;29;19914;-76
2022/06/23 12:13:42;;;;;;;;;;;;;;;;;;4952574;29;19997;-76
2022/06/23 12:16:08;;;;;;;;;;;;;;;;;;4936554;29;20358;-75
2022/06/23 12:18:33;;;;;;;;;;;;;;;;;;4952475;28;20042;-76
2022/06/23 12:21:00;;;;;;;;;;;;;;;;;;4952239;29;19925;-76
2022/06/23 12:23:25;;;;;;;;;;;;;;;;;;4952522;29;19918;-75
2022/06/23 12:25:51;;;;;;;;;;;;;;;;;;4952555;29;19914;-77
2022/06/23 12:28:23;;;;;;;;;;;;;;;;;;4971215;23;19930;-81
2022/06/23 12:30:49;;;;;;;;;;;;;;;;;;4957114;28;19918;-81
2022/06/23 12:33:14;;;;;;;;;;;;;;;;;;4976069;28;19921;-82
2022/06/23 12:35:40;;;;;;;;;;;;;;;;;;4960131;28;19921;-83
2022/06/23 12:38:06;;;;;;;;;;;;;;;;;;4960159;28;19958;-83
2022/06/23 12:40:41;;;;;;;;;;;;;;;;;;4945433;28;19965;-81
2022/06/23 12:43:07;;;;;;;;;;;;;;;;;;4944442;28;19998;-81
2022/06/23 12:45:35;;;;;;;;;;;;;;;;;;4960196;28;20017;-82
2022/06/23 12:48:01;;;;;;;;;;;;;;;;;;4944555;28;19961;-81
2022/06/23 12:50:29;;;;;;;;;;;;;;;;;;4960443;28;19989;-83
2022/06/23 12:52:55;;;;;;;;;;;;;;;;;;4960435;28;19926;-81
2022/06/23 12:55:24;;;;;;;;;;;;;;;;;;4976613;28;19914;-81
2022/06/23 12:57:56;;;;;;;;;;;;;;;;;;4960146;28;19918;-82
2022/06/23 13:00:25;;;;;;;;;;;;;;;;;;4945637;28;19996;-79
2022/06/23 13:02:57;;;;;;;;;;;;;;;;;;4944779;28;19914;-80
2022/06/23 13:05:23;;;;;;;;;;;;;;;;;;4959678;28;19925;-81
2022/06/23 13:07:49;;;;;;;;;;;;;;;;;;4944152;28;20052;-82
2022/06/23 13:10:15;;;;;;;;;;;;;;;;;;4976731;28;19918;-81
2022/06/23 13:12:46;;;;;;;;;;;;;;;;;;4943812;28;20021;-81
2022/06/23 13:15:12;;;;;;;;;;;;;;;;;;4943748;28;19957;-81
2022/06/23 13:17:38;;;;;;;;;;;;;;;;;;4943622;28;19921;-81
2022/06/23 13:20:10;;;;;;;;;;;;;;;;;;4959567;28;19961;-80
2022/06/23 13:22:36;;;;;;;;;;;;;;;;;;4943122;28;19918;-81
2022/06/23 13:25:01;;;;;;;;;;;;;;;;;;4959002;28;19914;-80
2022/06/23 13:27:27;;;;;;;;;;;;;;;;;;4959098;28;19950;-79
2022/06/23 13:29:54;;;;;;;;;;;;;;;;;;4926743;28;19980;-80
2022/06/23 13:32:22;;;;;;;;;;;;;;;;;;4926807;28;19949;-78
2022/06/23 13:34:48;;;;;;;;;;;;;;;;;;4942281;28;19914;-82
2022/06/23 13:37:14;;;;;;;;;;;;;;;;;;4926771;28;20378;-80
2022/06/23 13:39:39;;;;;;;;;;;;;;;;;;4926432;28;20289;-79
2022/06/23 13:42:05;;;;;;;;;;;;;;;;;;4974978;28;19914;-80
2022/06/23 13:44:31;;;;;;;;;;;;;;;;;;4941967;28;19914;-82
2022/06/23 13:46:57;;;;;;;;;;;;;;;;;;4948069;28;19936;-79
2022/06/23 13:49:22;;;;;;;;;;;;;;;;;;4975940;28;19925;-81
2022/06/23 13:51:48;;;;;;;;;;;;;;;;;;4927197;28;20305;-82
2022/06/23 13:54:17;;;;;;;;;;;;;;;;;;4942937;28;19914;-81
2022/06/23 13:56:42;;;;;;;;;;;;;;;;;;4942211;28;20012;-83
2022/06/23 13:59:08;;;;;;;;;;;;;;;;;;4926805;28;19918;-81
2022/06/23 14:01:34;;;;;;;;;;;;;;;;;;4942185;28;19914;-82
2022/06/23 14:04:00;;;;;;;;;;;;;;;;;;4926622;28;19914;-79
2022/06/23 14:06:26;;;;;;;;;;;;;;;;;;4958459;28;19914;-80
2022/06/23 14:08:52;;;;;;;;;;;;;;;;;;4958232;28;19996;-81
2022/06/23 14:11:18;;;;;;;;;;;;;;;;;;4926441;28;19925;-80
2022/06/23 14:13:44;;;;;;;;;;;;;;;;;;4926644;28;19914;-83
2022/06/23 14:16:10;;;;;;;;;;;;;;;;;;4958678;28;19968;-81
2022/06/23 14:18:35;;;;;;;;;;;;;;;;;;4926794;28;19982;-82
2022/06/23 14:21:01;;;;;;;;;;;;;;;;;;4926821;28;20318;-82
2022/06/23 14:23:30;;;;;;;;;;;;;;;;;;4928868;28;19914;-82
2022/06/23 14:25:59;;;;;;;;;;;;;;;;;;4944044;28;19921;-82
2022/06/23 14:28:25;;;;;;;;;;;;;;;;;;4943260;28;19918;-83
2022/06/23 14:30:50;;;;;;;;;;;;;;;;;;4942280;28;20387;-82
2022/06/23 14:33:16;;;;;;;;;;;;;;;;;;4927012;28;19932;-82
2022/06/23 14:35:45;;;;;;;;;;;;;;;;;;4942676;28;19914;-82
2022/06/23 14:38:10;;;;;;;;;;;;;;;;;;4926619;28;20009;-81
2022/06/23 14:40:36;;;;;;;;;;;;;;;;;;4927035;28;19945;-82
2022/06/23 14:43:02;;;;;;;;;;;;;;;;;;4943494;28;19968;-83
2022/06/23 14:45:31;;;;;;;;;;;;;;;;;;4949010;28;19914;-83
2022/06/23 14:47:57;;;;;;;;;;;;;;;;;;4960338;28;19962;-85
2022/06/23 14:50:22;;;;;;;;;;;;;;;;;;4944455;28;19922;-83
2022/06/23 14:52:48;;;;;;;;;;;;;;;;;;4928323;28;19921;-83
2022/06/23 14:55:14;;;;;;;;;;;;;;;;;;4944970;28;19914;-86
2022/06/23 14:57:40;;;;;;;;;;;;;;;;;;4944379;28;19963;-82
2022/06/23 15:00:07;;;;;;;;;;;;;;;;;;4944620;28;19966;-83
2022/06/23 15:02:33;;;;;;;;;;;;;;;;;;4945934;28;19914;-83
2022/06/23 15:04:58;;;;;;;;;;;;;;;;;;4945035;28;19920;-84
2022/06/23 15:07:24;;;;;;;;;;;;;;;;;;4961452;28;20380;-84
2022/06/23 15:09:50;;;;;;;;;;;;;;;;;;4928978;28;19942;-82
2022/06/23 15:12:16;;;;;;;;;;;;;;;;;;4946243;28;19921;-85
2022/06/23 15:14:42;;;;;;;;;;;;;;;;;;4961701;28;19914;-85
2022/06/23 15:17:09;;;;;;;;;;;;;;;;;;4964968;28;19961;-83
2022/06/23 15:19:34;;;;;;;;;;;;;;;;;;4931949;28;19914;-84
2022/06/23 15:24:55;;;;;;;;;;;;;;;;;;4951823;28;19922;-83
2022/06/23 15:27:21;;;;;;;;;;;;;;;;;;4952786;28;19914;-85
2022/06/23 15:29:50;;;;;;;;;;;;;;;;;;4948672;28;19996;-82
2022/06/23 15:32:16;;;;;;;;;;;;;;;;;;4943415;28;20325;-84
2022/06/23 15:34:45;;;;;;;;;;;;;;;;;;4943584;28;19914;-81
2022/06/23 15:37:11;;;;;;;;;;;;;;;;;;4928851;28;20288;-83
2022/06/23 15:39:37;;;;;;;;;;;;;;;;;;4929710;28;19910;-84
2022/06/23 15:42:03;;;;;;;;;;;;;;;;;;4930649;28;19915;-84
2022/06/23 15:44:28;;;;;;;;;;;;;;;;;;4945596;28;19977;-84
2022/06/23 15:46:54;;;;;;;;;;;;;;;;;;4962014;28;19914;-83
2022/06/23 15:49:19;;;;;;;;;;;;;;;;;;4930106;28;19918;-82
2022/06/23 15:51:45;;;;;;;;;;;;;;;;;;4930272;28;19914;-84
2022/06/23 15:54:11;;;;;;;;;;;;;;;;;;4943454;28;19914;-84
2022/06/23 15:56:36;;;;;;;;;;;;;;;;;;4929916;28;19926;-82
2022/06/23 15:59:02;;;;;;;;;;;;;;;;;;4946864;28;19944;-80
2022/06/23 16:01:28;;;;;;;;;;;;;;;;;;4946522;28;19914;-82
2022/06/23 16:03:53;;;;;;;;;;;;;;;;;;4961762;28;20270;-83
2022/06/23 16:06:19;;;;;;;;;;;;;;;;;;4947544;28;19918;-83
2022/06/23 16:08:45;;;;;;;;;;;;;;;;;;4933823;28;19969;-83
2022/06/23 16:11:10;;;;;;;;;;;;;;;;;;4965413;28;20178;-83
2022/06/23 16:13:36;;;;;;;;;;;;;;;;;;4950265;28;19922;-83
2022/06/23 16:16:01;;;;;;;;;;;;;;;;;;4933191;28;19937;-83
2022/06/23 16:18:27;;;;;;;;;;;;;;;;;;4950214;28;19951;-82
2022/06/23 16:20:52;;;;;;;;;;;;;;;;;;4948749;28;19918;-82
2022/06/23 16:23:18;;;;;;;;;;;;;;;;;;4962950;28;19996;-81
2022/06/23 16:25:44;;;;;;;;;;;;;;;;;;4962401;28;19922;-83
2022/06/23 16:28:09;;;;;;;;;;;;;;;;;;4945263;28;19918;-82
2022/06/23 16:30:37;;;;;;;;;;;;;;;;;;4945960;28;19922;-83
2022/06/23 16:33:03;;;;;;;;;;;;;;;;;;4945427;28;19914;-81
2022/06/23 16:35:29;;;;;;;;;;;;;;;;;;4960168;28;20297;-82
2022/06/23 16:37:55;;;;;;;;;;;;;;;;;;4928847;28;19914;-80
2022/06/23 16:40:21;;;;;;;;;;;;;;;;;;4977188;28;19953;-81
2022/06/23 16:42:46;;;;;;;;;;;;;;;;;;4928618;28;19914;-81
2022/06/23 16:45:12;;;;;;;;;;;;;;;;;;4944757;28;20021;-81
2022/06/23 16:47:38;;;;;;;;;;;;;;;;;;4928453;28;19966;-82